Time;durP1;ratioP1;P1;durP2;ratioP2;P2;SDS_P1;SDS_P2;PMS_P1;PMS_P2;Temp;Humidity;BMP_temperature;BMP_pressure;BME280_temperature;BME280_humidity;BME280_pressure;Samples;Min_cycle;Max_cycle;Signal;HPM_P1;HPM_P2
2022/01/31 00:01:25;;;;;;;19.88;4.38;;;3.30;99.90;;;;;;4936650;29;20055;-73
2022/01/31 00:03:51;;;;;;;15.07;3.50;;;3.30;99.90;;;;;;4936947;29;20131;-73
2022/01/31 00:06:17;;;;;;;25.10;3.70;;;3.30;99.90;;;;;;4936379;29;20095;-73
2022/01/31 00:08:43;;;;;;;19.55;4.55;;;3.30;99.90;;;;;;4936860;29;20047;-74
2022/01/31 00:11:08;;;;;;;17.00;3.40;;;3.30;99.90;;;;;;4936606;29;20098;-74
2022/01/31 00:13:41;;;;;;;15.50;4.22;;;3.30;99.90;;;;;;4935476;29;20228;-73
2022/01/31 00:16:09;;;;;;;18.45;3.47;;;3.40;99.90;;;;;;4936313;29;20130;-73
2022/01/31 00:18:35;;;;;;;14.32;3.33;;;3.40;99.90;;;;;;4936605;29;20464;-74
2022/01/31 00:21:01;;;;;;;18.33;3.90;;;3.30;99.90;;;;;;4936494;29;20055;-73
2022/01/31 00:23:27;;;;;;;21.38;4.40;;;3.30;99.90;;;;;;4934560;29;20052;-71
2022/01/31 00:25:52;;;;;;;18.85;5.60;;;3.40;99.90;;;;;;4936223;29;20044;-74
2022/01/31 00:28:18;;;;;;;17.77;4.05;;;3.30;99.90;;;;;;4919408;29;20126;-74
2022/01/31 00:30:45;;;;;;;17.58;3.97;;;3.30;99.90;;;;;;4936168;29;20083;-74
2022/01/31 00:33:12;;;;;;;18.80;3.80;;;3.30;99.90;;;;;;4935960;29;20054;-74
2022/01/31 00:35:37;;;;;;;20.27;3.88;;;3.30;99.90;;;;;;4936174;29;20112;-73
2022/01/31 00:38:03;;;;;;;18.02;3.90;;;3.30;99.90;;;;;;4935919;29;20433;-74
2022/01/31 00:40:29;;;;;;;17.13;4.45;;;3.30;99.90;;;;;;4936234;29;20044;-74
2022/01/31 00:42:54;;;;;;;18.38;4.88;;;3.30;99.90;;;;;;4936171;29;20122;-73
2022/01/31 00:45:26;;;;;;;18.90;4.45;;;3.40;99.90;;;;;;4936146;29;20096;-72
2022/01/31 00:48:01;;;;;;;17.67;4.18;;;3.40;99.90;;;;;;4935908;29;20044;-72
2022/01/31 00:50:28;;;;;;;16.67;4.47;;;3.40;99.90;;;;;;4919032;29;20063;-73
2022/01/31 00:52:55;;;;;;;16.95;5.00;;;3.40;99.90;;;;;;4936008;29;20055;-73
2022/01/31 00:55:21;;;;;;;19.15;5.00;;;3.40;99.90;;;;;;4935551;29;20113;-73
2022/01/31 00:57:47;;;;;;;19.02;5.05;;;3.40;99.90;;;;;;4918515;29;20519;-73
2022/01/31 01:00:14;;;;;;;18.80;5.18;;;3.40;99.90;;;;;;4935462;29;20044;-74
2022/01/31 01:02:40;;;;;;;21.50;4.72;;;3.40;99.90;;;;;;4935814;29;20051;-73
2022/01/31 01:05:06;;;;;;;19.10;5.43;;;3.40;99.90;;;;;;4918982;29;20193;-71
2022/01/31 01:07:32;;;;;;;19.90;5.10;;;3.50;99.90;;;;;;4935817;29;20444;-73
2022/01/31 01:09:58;;;;;;;13.95;4.45;;;3.40;99.90;;;;;;4935165;29;20039;-72
2022/01/31 01:12:23;;;;;;;20.80;6.32;;;3.50;99.90;;;;;;4935558;29;20044;-71
2022/01/31 01:14:50;;;;;;;21.15;6.30;;;3.50;99.90;;;;;;4934190;29;20059;-73
2022/01/31 01:17:16;;;;;;;17.25;5.38;;;3.50;99.90;;;;;;4935583;29;20047;-72
2022/01/31 01:19:43;;;;;;;25.45;6.40;;;3.50;99.90;;;;;;4935596;29;20047;-73
2022/01/31 01:22:09;;;;;;;15.68;5.72;;;3.50;99.90;;;;;;4935519;29;20058;-72
2022/01/31 01:24:35;;;;;;;15.82;5.32;;;4.00;99.90;;;;;;4935474;29;20044;-73
2022/01/31 01:27:00;;;;;;;17.10;5.65;;;3.50;99.90;;;;;;4935029;29;20484;-73
2022/01/31 01:29:26;;;;;;;23.50;7.18;;;3.50;99.90;;;;;;4918201;29;20056;-72
2022/01/31 01:31:52;;;;;;;18.70;5.43;;;3.90;99.90;;;;;;4917840;29;20407;-73
2022/01/31 01:34:20;;;;;;;17.55;6.22;;;3.50;99.90;;;;;;4918451;29;20134;-71
2022/01/31 01:36:47;;;;;;;17.85;6.20;;;3.50;99.90;;;;;;4918324;29;20093;-72
2022/01/31 01:39:12;;;;;;;21.92;6.47;;;3.40;99.90;;;;;;4935746;29;20044;-72
2022/01/31 01:41:38;;;;;;;23.00;6.03;;;3.40;99.90;;;;;;4934767;29;20059;-73
2022/01/31 01:44:05;;;;;;;23.15;6.43;;;3.40;99.90;;;;;;4935021;29;20040;-73
2022/01/31 01:46:30;;;;;;;16.20;5.53;;;3.40;99.90;;;;;;4935123;29;20055;-73
2022/01/31 01:48:56;;;;;;;17.77;6.15;;;3.40;99.90;;;;;;4935546;29;20043;-72
2022/01/31 01:51:22;;;;;;;20.13;7.15;;;3.30;99.90;;;;;;4917889;29;20056;-70
2022/01/31 01:53:47;;;;;;;18.65;6.65;;;3.30;99.90;;;;;;4918161;29;20050;-72
2022/01/31 01:56:14;;;;;;;19.63;6.05;;;3.30;99.90;;;;;;4934986;29;20076;-72
2022/01/31 01:58:42;;;;;;;18.27;5.85;;;3.20;99.90;;;;;;4917707;29;20056;-72
2022/01/31 02:01:09;;;;;;;17.52;6.68;;;3.20;99.90;;;;;;4935097;29;20049;-72
2022/01/31 02:03:37;;;;;;;17.90;6.38;;;3.10;99.90;;;;;;4935289;29;20058;-73
2022/01/31 02:06:05;;;;;;;18.05;6.10;;;3.00;99.90;;;;;;4934926;29;20484;-72
2022/01/31 02:08:39;;;;;;;23.55;7.57;;;2.90;99.90;;;;;;4935176;29;20469;-72
2022/01/31 02:11:06;;;;;;;20.83;6.85;;;2.90;99.90;;;;;;4917926;29;20051;-73
2022/01/31 02:13:33;;;;;;;25.35;8.00;;;2.80;99.90;;;;;;4934519;29;20051;-72
2022/01/31 02:15:59;;;;;;;23.88;7.75;;;2.80;99.90;;;;;;4934827;29;20044;-72
2022/01/31 02:18:28;;;;;;;23.45;9.18;;;2.80;99.90;;;;;;4935139;29;20475;-74
2022/01/31 02:20:53;;;;;;;21.17;8.55;;;2.70;99.90;;;;;;4934770;29;20439;-73
2022/01/31 02:23:22;;;;;;;22.98;7.80;;;3.40;99.90;;;;;;4935096;29;20050;-72
2022/01/31 02:25:57;;;;;;;18.25;7.63;;;2.60;99.90;;;;;;4934667;29;20519;-72
2022/01/31 02:28:25;;;;;;;19.25;8.13;;;2.60;99.90;;;;;;4934569;29;20059;-73
2022/01/31 02:30:52;;;;;;;21.50;8.13;;;2.50;99.90;;;;;;4934404;29;20067;-72
2022/01/31 02:33:18;;;;;;;20.92;7.70;;;2.90;99.90;;;;;;4935092;29;20138;-72
2022/01/31 02:35:46;;;;;;;19.83;8.23;;;2.40;99.90;;;;;;4934727;29;20044;-73
2022/01/31 02:38:12;;;;;;;25.20;9.23;;;2.30;99.90;;;;;;4934872;29;20043;-72
2022/01/31 02:40:37;;;;;;;20.00;8.60;;;2.30;99.90;;;;;;4934847;29;20054;-73
2022/01/31 02:43:03;;;;;;;22.52;8.75;;;2.30;99.90;;;;;;4934714;29;20130;-72
2022/01/31 02:45:30;;;;;;;21.42;8.68;;;2.30;99.90;;;;;;4918396;29;20086;-74
2022/01/31 02:47:58;;;;;;;20.75;9.95;;;2.30;99.90;;;;;;4939276;29;20064;-72
2022/01/31 02:50:24;;;;;;;20.38;9.35;;;2.30;99.90;;;;;;4954688;29;20103;-73
2022/01/31 02:53:00;;;;;;;22.50;9.55;;;2.20;99.90;;;;;;4955537;29;20036;-72
2022/01/31 02:55:26;;;;;;;20.65;8.98;;;2.20;99.90;;;;;;4945438;29;20059;-74
2022/01/31 02:57:51;;;;;;;22.63;9.60;;;2.20;99.90;;;;;;4941640;29;20127;-73
2022/01/31 03:00:17;;;;;;;17.05;9.27;;;2.50;99.90;;;;;;4939209;29;20039;-72
2022/01/31 03:02:43;;;;;;;21.58;10.10;;;2.10;99.90;;;;;;4938451;29;20055;-72
2022/01/31 03:05:08;;;;;;;22.73;10.38;;;2.10;99.90;;;;;;4938167;29;20062;-73
2022/01/31 03:07:34;;;;;;;22.65;10.15;;;2.10;99.90;;;;;;4937668;29;20131;-73
2022/01/31 03:10:01;;;;;;;23.73;10.57;;;2.10;99.90;;;;;;4937744;29;20040;-71
2022/01/31 03:12:28;;;;;;;20.10;9.73;;;2.10;99.90;;;;;;4937722;29;20459;-71
2022/01/31 03:14:54;;;;;;;20.27;9.95;;;2.10;99.90;;;;;;4937657;29;20111;-72
2022/01/31 03:17:19;;;;;;;21.63;10.50;;;2.10;99.90;;;;;;4937282;29;20040;-73
2022/01/31 03:19:52;;;;;;;22.63;10.60;;;2.10;99.90;;;;;;4937843;29;20071;-72
2022/01/31 03:22:19;;;;;;;17.45;9.48;;;2.10;99.90;;;;;;4937826;29;20047;-72
2022/01/31 03:24:45;;;;;;;17.55;9.25;;;2.60;99.90;;;;;;4937564;29;20511;-70
2022/01/31 03:27:11;;;;;;;22.63;10.43;;;2.20;99.90;;;;;;4937443;29;20063;-70
2022/01/31 03:29:36;;;;;;;22.27;9.65;;;2.20;99.90;;;;;;4937629;29;20047;-72
2022/01/31 03:32:03;;;;;;;20.15;10.63;;;2.20;99.90;;;;;;4937269;29;20036;-71
2022/01/31 03:34:29;;;;;;;22.17;9.50;;;2.20;99.90;;;;;;4937043;29;20503;-72
2022/01/31 03:36:55;;;;;;;18.83;9.57;;;2.20;99.90;;;;;;4937080;29;20077;-73
2022/01/31 03:39:20;;;;;;;21.30;9.85;;;2.30;99.90;;;;;;4936456;29;20117;-72
2022/01/31 03:41:46;;;;;;;16.20;7.97;;;2.30;99.90;;;;;;4937629;29;20170;-73
2022/01/31 03:44:12;;;;;;;18.77;8.15;;;2.30;99.90;;;;;;4937106;29;20043;-70
2022/01/31 03:46:38;;;;;;;18.13;8.00;;;2.30;99.90;;;;;;4937058;29;20052;-71
2022/01/31 03:49:04;;;;;;;17.40;7.25;;;2.40;99.90;;;;;;4936547;29;20488;-74
2022/01/31 03:51:30;;;;;;;15.45;7.70;;;2.30;99.90;;;;;;4919780;29;20060;-72
2022/01/31 03:53:56;;;;;;;17.05;7.63;;;2.30;99.90;;;;;;4937029;29;20051;-71
2022/01/31 03:56:21;;;;;;;16.25;8.43;;;2.80;99.90;;;;;;4936528;29;20062;-72
2022/01/31 03:58:47;;;;;;;16.88;8.05;;;2.30;99.90;;;;;;4935807;29;20396;-72
2022/01/31 04:01:13;;;;;;;14.80;6.40;;;2.30;99.90;;;;;;4936984;29;20035;-71
2022/01/31 04:03:38;;;;;;;13.30;7.18;;;2.30;99.90;;;;;;4936542;29;20103;-72
2022/01/31 04:06:04;;;;;;;16.73;7.00;;;2.30;99.90;;;;;;4935160;29;20055;-73
2022/01/31 04:08:30;;;;;;;15.73;7.28;;;2.40;99.90;;;;;;4936860;29;20115;-71
2022/01/31 04:10:55;;;;;;;16.20;7.13;;;2.40;99.90;;;;;;4936607;29;20047;-73
2022/01/31 04:13:21;;;;;;;12.65;6.57;;;2.40;99.90;;;;;;4919409;29;20043;-73
2022/01/31 04:15:47;;;;;;;12.02;5.32;;;2.50;99.90;;;;;;4919569;29;20059;-72
2022/01/31 04:18:13;;;;;;;10.77;5.57;;;2.50;99.90;;;;;;4936668;29;20392;-72
2022/01/31 04:20:39;;;;;;;12.02;6.22;;;2.60;99.90;;;;;;4919035;29;20067;-72
2022/01/31 04:23:13;;;;;;;16.73;6.45;;;2.60;99.90;;;;;;4936591;29;20063;-71
2022/01/31 04:25:54;;;;;;;14.75;6.18;;;2.70;99.90;;;;;;4936436;29;20087;-71
2022/01/31 04:28:24;;;;;;;11.25;5.57;;;2.70;99.90;;;;;;4936184;29;20055;-74
2022/01/31 04:31:11;;;;;;;13.55;6.70;;;2.70;99.90;;;;;;4936323;29;20043;-72
2022/01/31 04:33:37;;;;;;;12.82;6.25;;;2.70;99.90;;;;;;4936349;29;20070;-73
2022/01/31 04:36:03;;;;;;;14.02;6.68;;;2.80;99.90;;;;;;4918316;29;20495;-71
2022/01/31 04:38:28;;;;;;;14.15;6.28;;;2.80;99.90;;;;;;4936096;29;20440;-71
2022/01/31 04:40:54;;;;;;;14.35;5.90;;;3.00;99.90;;;;;;4936041;29;20050;-72
2022/01/31 04:43:20;;;;;;;12.75;6.32;;;3.30;99.90;;;;;;4918794;29;20115;-71
2022/01/31 04:45:49;;;;;;;15.80;6.72;;;3.00;99.90;;;;;;4935938;29;20047;-70
2022/01/31 04:48:19;;;;;;;18.00;6.60;;;3.00;99.90;;;;;;4936198;29;20048;-73
2022/01/31 04:50:46;;;;;;;13.73;6.55;;;3.10;99.90;;;;;;4935931;29;20060;-73
2022/01/31 04:53:12;;;;;;;14.73;5.15;;;3.10;99.90;;;;;;4935459;29;20440;-72
2022/01/31 04:55:39;;;;;;;13.27;5.00;;;3.20;99.90;;;;;;4918485;29;20060;-72
2022/01/31 04:58:05;;;;;;;19.77;4.88;;;3.30;99.90;;;;;;4918007;29;20066;-73
2022/01/31 05:00:31;;;;;;;13.25;3.63;;;3.40;99.90;;;;;;4935928;29;20044;-72
2022/01/31 05:02:57;;;;;;;15.73;4.35;;;3.60;99.90;;;;;;4934839;29;20102;-72
2022/01/31 05:05:23;;;;;;;14.95;3.97;;;3.70;99.90;;;;;;4935733;29;20484;-72
2022/01/31 05:07:51;;;;;;;17.05;3.28;;;3.80;99.90;;;;;;4935393;29;20043;-70
2022/01/31 05:10:17;;;;;;;14.85;3.65;;;4.10;99.90;;;;;;4918196;29;20522;-72
2022/01/31 05:12:43;;;;;;;9.52;2.88;;;4.00;99.90;;;;;;4935716;29;20036;-72
2022/01/31 05:15:09;;;;;;;21.05;3.30;;;4.10;99.90;;;;;;4935753;29;20523;-71
2022/01/31 05:17:34;;;;;;;14.70;3.45;;;4.10;99.90;;;;;;4935682;29;20396;-71
2022/01/31 05:20:00;;;;;;;15.00;3.70;;;4.20;99.90;;;;;;4935677;29;20054;-72
2022/01/31 05:22:26;;;;;;;18.48;3.08;;;4.60;99.90;;;;;;4935567;29;20127;-71
2022/01/31 05:24:51;;;;;;;14.10;3.00;;;4.20;99.90;;;;;;4934953;29;20040;-71
2022/01/31 05:27:17;;;;;;;12.25;2.35;;;4.30;99.90;;;;;;4935307;29;20048;-73
2022/01/31 05:29:42;;;;;;;18.05;2.70;;;4.30;99.90;;;;;;4935621;29;20031;-71
2022/01/31 05:32:08;;;;;;;12.95;2.70;;;4.30;99.90;;;;;;4935272;29;20054;-72
2022/01/31 05:34:34;;;;;;;11.27;2.22;;;4.30;99.90;;;;;;4934429;29;20040;-74
2022/01/31 05:36:59;;;;;;;15.30;2.30;;;4.30;99.90;;;;;;4935378;29;20044;-72
2022/01/31 05:39:25;;;;;;;21.65;2.83;;;4.30;99.90;;;;;;4934884;29;20559;-71
2022/01/31 05:41:52;;;;;;;11.88;2.42;;;4.30;99.90;;;;;;4934941;29;20131;-72
2022/01/31 05:44:19;;;;;;;20.25;2.83;;;4.40;99.90;;;;;;4934018;29;20147;-72
2022/01/31 05:46:45;;;;;;;10.32;2.20;;;4.40;99.90;;;;;;4935451;29;20110;-71
2022/01/31 05:49:11;;;;;;;13.77;2.17;;;4.40;99.90;;;;;;4935385;29;20048;-73
2022/01/31 05:51:48;;;;;;;15.07;2.45;;;4.40;99.90;;;;;;4935081;29;20059;-72
2022/01/31 05:54:14;;;;;;;12.10;2.35;;;4.40;99.90;;;;;;4935237;29;20411;-72
2022/01/31 05:56:39;;;;;;;16.15;4.00;;;4.40;99.90;;;;;;4917520;29;20063;-71
2022/01/31 05:59:05;;;;;;;14.90;2.55;;;4.40;99.90;;;;;;4935365;29;20047;-72
2022/01/31 06:01:31;;;;;;;11.43;2.47;;;4.80;99.90;;;;;;4933899;29;20135;-73
2022/01/31 06:03:56;;;;;;;12.02;2.10;;;4.40;99.90;;;;;;4935281;29;20054;-72
2022/01/31 06:06:22;;;;;;;10.15;2.13;;;4.30;99.90;;;;;;4935200;29;20400;-73
2022/01/31 06:08:48;;;;;;;9.85;1.77;;;4.30;99.90;;;;;;4917869;29;20484;-73
2022/01/31 06:11:13;;;;;;;5.43;1.30;;;4.60;99.90;;;;;;4934347;29;20048;-72
2022/01/31 06:13:42;;;;;;;7.38;1.15;;;4.30;99.90;;;;;;4935177;29;20047;-73
2022/01/31 06:16:07;;;;;;;7.15;1.45;;;4.20;99.90;;;;;;4934217;29;20055;-72
2022/01/31 06:18:35;;;;;;;5.63;1.10;;;4.20;99.90;;;;;;4935117;29;20436;-70
2022/01/31 06:21:02;;;;;;;7.03;2.25;;;4.20;99.90;;;;;;4935627;29;20400;-74
2022/01/31 06:23:29;;;;;;;8.85;1.30;;;4.10;99.90;;;;;;4938485;29;20085;-73
2022/01/31 06:25:55;;;;;;;5.88;0.95;;;4.10;99.90;;;;;;4938330;29;20572;-72
2022/01/31 06:28:21;;;;;;;9.20;1.60;;;4.10;99.90;;;;;;4938639;29;20131;-74
2022/01/31 06:30:47;;;;;;;6.63;1.40;;;4.10;99.90;;;;;;4938425;29;20135;-74
2022/01/31 06:33:16;;;;;;;4.25;1.02;;;4.10;99.90;;;;;;4938516;29;20087;-73
2022/01/31 06:35:45;;;;;;;6.78;0.88;;;4.10;99.90;;;;;;4938533;29;20110;-72
2022/01/31 06:38:11;;;;;;;5.03;1.33;;;4.00;99.90;;;;;;4938285;29;20132;-73
2022/01/31 06:40:37;;;;;;;2.60;0.88;;;4.00;99.90;;;;;;4921768;29;20153;-72
2022/01/31 06:43:02;;;;;;;3.63;0.98;;;4.00;99.90;;;;;;4939706;29;20054;-72
2022/01/31 06:45:28;;;;;;;9.40;0.77;;;4.00;99.90;;;;;;4955399;29;20047;-72
2022/01/31 06:47:54;;;;;;;3.58;0.93;;;4.00;99.90;;;;;;4953837;28;20027;-72
2022/01/31 06:50:19;;;;;;;2.20;0.60;;;4.00;99.90;;;;;;4924559;29;20091;-72
2022/01/31 06:52:49;;;;;;;3.13;0.88;;;4.00;99.90;;;;;;4940892;29;20134;-70
2022/01/31 06:55:19;;;;;;;3.60;1.00;;;4.20;99.90;;;;;;4938359;29;20055;-72
2022/01/31 06:57:45;;;;;;;8.93;0.80;;;4.00;99.90;;;;;;4938426;29;20051;-72
2022/01/31 07:00:12;;;;;;;6.43;0.88;;;4.00;99.90;;;;;;4937932;29;20123;-73
2022/01/31 07:02:38;;;;;;;1.90;0.60;;;4.00;99.90;;;;;;4938084;29;20123;-72
2022/01/31 07:05:05;;;;;;;3.00;0.65;;;4.00;99.90;;;;;;4937848;29;20123;-73
2022/01/31 07:07:31;;;;;;;8.95;0.50;;;3.90;99.90;;;;;;4938097;29;20148;-72
2022/01/31 07:10:00;;;;;;;2.30;0.40;;;4.00;99.90;;;;;;4920938;29;20107;-71
2022/01/31 07:12:32;;;;;;;1.48;0.55;;;4.00;99.90;;;;;;4937939;29;20484;-73
2022/01/31 07:14:58;;;;;;;4.60;0.63;;;4.00;99.90;;;;;;4937520;29;20095;-71
2022/01/31 07:17:23;;;;;;;3.78;0.82;;;4.00;99.90;;;;;;4937791;29;20043;-71
2022/01/31 07:19:49;;;;;;;9.05;0.80;;;4.00;99.90;;;;;;4933660;29;20523;-72
2022/01/31 07:22:15;;;;;;;5.28;0.73;;;4.00;99.90;;;;;;4921887;29;20052;-70
2022/01/31 07:27:25;;;;;;;5.95;0.88;;;4.00;99.90;;;;;;4918109;29;20408;-75
2022/01/31 07:29:51;;;;;;;10.15;1.90;;;4.00;99.90;;;;;;4918537;29;20041;-73
2022/01/31 07:32:16;;;;;;;8.93;1.40;;;4.00;99.90;;;;;;4918079;29;20127;-71
2022/01/31 07:34:43;;;;;;;7.05;1.20;;;4.00;99.90;;;;;;4917865;29;20496;-71
2022/01/31 07:37:10;;;;;;;4.80;0.90;;;4.00;99.90;;;;;;4933542;29;20111;-70
2022/01/31 07:39:39;;;;;;;4.80;1.02;;;4.00;99.90;;;;;;4932830;29;20070;-73
2022/01/31 07:42:05;;;;;;;6.88;1.20;;;4.00;99.90;;;;;;4935386;29;20040;-71
2022/01/31 07:44:30;;;;;;;5.35;1.08;;;4.00;99.90;;;;;;4935623;29;20469;-70
2022/01/31 07:46:56;;;;;;;8.10;1.30;;;4.00;99.90;;;;;;4934523;29;20047;-71
2022/01/31 07:49:22;;;;;;;8.70;1.35;;;4.00;99.90;;;;;;4918844;29;20487;-75
2022/01/31 07:51:48;;;;;;;5.95;1.23;;;4.10;99.90;;;;;;4934792;29;20067;-69
2022/01/31 07:54:14;;;;;;;7.95;1.08;;;4.10;99.90;;;;;;4935086;29;20443;-71
2022/01/31 07:56:39;;;;;;;4.43;0.80;;;4.10;99.90;;;;;;4934206;29;20134;-70
2022/01/31 07:59:05;;;;;;;4.53;0.93;;;4.10;99.90;;;;;;4935331;29;20047;-70
2022/01/31 08:01:31;;;;;;;5.05;1.00;;;4.10;99.90;;;;;;4934620;29;20408;-72
2022/01/31 08:03:56;;;;;;;5.22;1.00;;;4.20;99.90;;;;;;4934493;29;20086;-78
2022/01/31 08:06:22;;;;;;;2.42;0.57;;;4.20;99.90;;;;;;4935016;29;20044;-76
2022/01/31 08:08:49;;;;;;;6.65;0.82;;;4.30;99.90;;;;;;4918052;29;20047;-70
2022/01/31 08:11:15;;;;;;;6.82;0.90;;;4.30;99.90;;;;;;4935647;29;20062;-73
2022/01/31 08:13:40;;;;;;;9.57;1.05;;;4.30;99.90;;;;;;4934862;29;20048;-71
2022/01/31 08:18:37;;;;;;;5.75;1.05;;;4.30;99.90;;;;;;4933891;29;20087;-73
2022/01/31 08:21:03;;;;;;;3.70;1.00;;;4.30;99.90;;;;;;4917743;29;20135;-71
2022/01/31 08:23:30;;;;;;;7.82;0.95;;;4.40;99.90;;;;;;4934951;29;20131;-71
2022/01/31 08:25:57;;;;;;;3.03;0.70;;;4.80;99.90;;;;;;4934797;29;20048;-72
2022/01/31 08:28:32;;;;;;;1.40;0.52;;;4.70;99.90;;;;;;4918002;29;20547;-69
2022/01/31 08:31:06;;;;;;;7.35;1.15;;;4.90;99.90;;;;;;4934521;29;20101;-71
2022/01/31 08:33:35;;;;;;;2.45;0.50;;;4.50;99.90;;;;;;4934421;29;20055;-73
2022/01/31 08:36:02;;;;;;;4.65;1.13;;;4.50;99.90;;;;;;4934019;29;20043;-69
2022/01/31 08:38:27;;;;;;;4.57;0.70;;;4.60;99.90;;;;;;4932249;29;20071;-67
2022/01/31 08:40:53;;;;;;;6.03;0.90;;;4.60;99.90;;;;;;4934254;29;20048;-72
2022/01/31 08:43:20;;;;;;;6.15;1.00;;;4.60;99.90;;;;;;4934049;29;20411;-72
2022/01/31 08:45:46;;;;;;;5.32;1.23;;;4.60;99.90;;;;;;4933846;29;20455;-73
2022/01/31 08:48:11;;;;;;;6.32;1.02;;;4.60;99.90;;;;;;4933844;29;20046;-72
2022/01/31 08:50:37;;;;;;;3.75;0.88;;;4.70;99.90;;;;;;4916109;29;20472;-73
2022/01/31 08:53:04;;;;;;;6.82;1.27;;;4.80;99.90;;;;;;4916849;29;20056;-71
2022/01/31 08:55:29;;;;;;;5.47;1.20;;;4.80;99.90;;;;;;4917006;29;20051;-79
2022/01/31 08:57:57;;;;;;;4.38;1.13;;;4.80;99.90;;;;;;4916164;29;20122;-75
2022/01/31 09:00:34;;;;;;;7.22;0.95;;;4.80;99.90;;;;;;4934183;29;20404;-72
2022/01/31 09:03:17;;;;;;;8.32;1.63;;;4.90;99.90;;;;;;4916801;29;20089;-70
2022/01/31 09:05:43;;;;;;;7.97;1.70;;;4.90;99.90;;;;;;4933324;29;20035;-72
2022/01/31 09:08:09;;;;;;;5.50;1.65;;;5.40;99.90;;;;;;4916471;29;20051;-72
2022/01/31 09:10:35;;;;;;;6.85;1.60;;;5.00;99.90;;;;;;4933687;29;20528;-68
2022/01/31 09:13:01;;;;;;;7.10;1.10;;;4.90;99.90;;;;;;4933325;29;20048;-68
2022/01/31 09:15:26;;;;;;;13.48;1.88;;;4.90;99.90;;;;;;4916293;29;20047;-68
2022/01/31 09:17:52;;;;;;;6.38;1.80;;;4.90;99.90;;;;;;4916345;29;20060;-68
2022/01/31 09:20:19;;;;;;;10.13;1.77;;;5.00;99.90;;;;;;4933472;29;20091;-75
2022/01/31 09:22:45;;;;;;;8.45;2.40;;;5.20;99.90;;;;;;4932170;29;20394;-74
2022/01/31 09:25:14;;;;;;;9.40;3.00;;;5.50;99.90;;;;;;4933559;29;20048;-74
2022/01/31 09:27:41;;;;;;;11.68;3.22;;;5.20;99.90;;;;;;4916297;29;20079;-78
2022/01/31 09:30:09;;;;;;;9.85;2.70;;;5.40;99.90;;;;;;4933189;29;20379;-77
2022/01/31 09:32:36;;;;;;;7.03;1.98;;;5.20;99.90;;;;;;4930614;29;20377;-80
2022/01/31 09:35:02;;;;;;;7.38;1.92;;;5.30;99.90;;;;;;4918469;23;20051;-84
2022/01/31 09:37:28;;;;;;;7.15;1.88;;;5.30;99.90;;;;;;4901582;29;20079;-81
2022/01/31 09:40:01;;;;;;;5.32;1.25;;;5.40;99.90;;;;;;4929840;29;20088;-81
2022/01/31 09:43:00;;;;;;;6.00;1.60;;;5.50;99.90;;;;;;4924490;29;20060;-80
2022/01/31 09:45:34;;;;;;;4.50;1.40;;;5.50;99.90;;;;;;4905645;29;20056;-81
2022/01/31 09:50:29;;;;;;;9.18;1.65;;;5.60;99.90;;;;;;4923720;29;20047;-86
2022/01/31 09:52:55;;;;;;;12.35;1.45;;;5.60;99.90;;;;;;4922598;29;20080;-82
2022/01/31 09:55:22;;;;;;;7.65;1.40;;;5.70;99.90;;;;;;4925077;29;20059;-81
2022/01/31 09:57:48;;;;;;;5.85;1.60;;;5.80;99.90;;;;;;4927529;29;20048;-81
2022/01/31 10:00:14;;;;;;;11.23;1.70;;;5.80;99.90;;;;;;4944775;29;20127;-83
2022/01/31 10:02:41;;;;;;;7.90;2.00;;;5.70;99.90;;;;;;4929940;29;20044;-82
2022/01/31 10:05:08;;;;;;;6.95;1.50;;;5.60;99.90;;;;;;4924866;29;20110;-82
2022/01/31 10:07:44;;;;;;;8.38;1.50;;;5.70;99.90;;;;;;4926727;29;20046;-83
2022/01/31 10:10:39;;;;;;;12.60;1.80;;;5.70;99.90;;;;;;4926204;29;20515;-82
2022/01/31 10:16:29;;;;;;;12.85;1.70;;;6.00;99.90;;;;;;4889991;29;20063;-83
2022/01/31 10:19:09;;;;;;;16.05;2.05;;;6.70;99.90;;;;;;4872123;29;20116;-82
2022/01/31 10:21:55;;;;;;;10.18;1.42;;;6.00;99.90;;;;;;4867322;29;20060;-82
2022/01/31 10:24:21;;;;;;;11.32;1.63;;;6.10;99.90;;;;;;4871831;29;20101;-82
2022/01/31 10:26:47;;;;;;;9.05;1.50;;;6.70;99.90;;;;;;4883707;29;20045;-79
2022/01/31 10:29:14;;;;;;;9.57;1.60;;;6.10;99.90;;;;;;4882832;29;20572;-82
2022/01/31 10:32:09;;;;;;;5.53;1.08;;;6.70;99.90;;;;;;4869721;29;20123;-81
2022/01/31 10:34:52;;;;;;;5.68;0.95;;;6.20;99.90;;;;;;4879067;29;20041;-81
2022/01/31 10:37:21;;;;;;;10.10;2.47;;;6.30;99.90;;;;;;4877639;29;20216;-82
2022/01/31 10:45:28;;;;;;;6.18;1.10;;;6.50;99.90;;;;;;4922300;29;20372;-81
2022/01/31 10:54:09;;;;;;;7.45;1.25;;;6.60;99.90;;;;;;4943017;29;20074;-80
2022/01/31 10:56:46;;;;;;;6.95;1.58;;;6.70;99.90;;;;;;4947604;29;20032;-83
2022/01/31 10:59:19;;;;;;;7.32;1.63;;;6.80;99.90;;;;;;4927794;29;20055;-80
2022/01/31 11:01:50;;;;;;;7.97;1.20;;;6.90;99.90;;;;;;4949696;29;20107;-80
2022/01/31 11:04:16;;;;;;;6.43;1.10;;;7.40;99.90;;;;;;4927227;29;20149;-84
2022/01/31 11:06:45;;;;;;;8.60;1.23;;;7.00;99.90;;;;;;4925216;28;20435;-76
2022/01/31 11:09:13;;;;;;;9.40;1.15;;;6.80;99.90;;;;;;4944649;29;20040;-82
2022/01/31 11:11:42;;;;;;;6.35;1.40;;;6.80;99.90;;;;;;4931459;29;20044;-81
2022/01/31 11:14:09;;;;;;;12.60;1.92;;;6.80;99.90;;;;;;4944078;29;20082;-80
2022/01/31 11:16:36;;;;;;;8.98;1.70;;;6.90;99.90;;;;;;4942650;29;20122;-79
2022/01/31 11:19:07;;;;;;;7.38;1.10;;;6.80;99.90;;;;;;4933831;29;20110;-80
2022/01/31 11:21:38;;;;;;;6.68;1.73;;;7.30;99.90;;;;;;4952007;29;20774;-80
2022/01/31 11:24:17;;;;;;;9.90;1.40;;;6.80;99.90;;;;;;4961982;28;20103;-81
2022/01/31 11:26:46;;;;;;;10.25;2.00;;;7.00;99.90;;;;;;4968577;28;20043;-82
2022/01/31 11:29:12;;;;;;;7.75;1.10;;;6.80;99.90;;;;;;4944065;29;20142;-81
2022/01/31 11:31:39;;;;;;;12.20;1.30;;;7.00;99.90;;;;;;4963534;29;20042;-77
2022/01/31 11:34:06;;;;;;;10.93;1.70;;;7.20;99.90;;;;;;4956942;29;20134;-78
2022/01/31 11:36:37;;;;;;;13.90;1.40;;;7.40;99.90;;;;;;4954211;29;20459;-83
2022/01/31 11:39:07;;;;;;;14.35;1.30;;;7.70;99.90;;;;;;4953009;29;20051;-82
2022/01/31 11:41:35;;;;;;;6.45;1.23;;;7.60;99.90;;;;;;4933045;29;20039;-77
2022/01/31 11:44:17;;;;;;;8.43;1.63;;;7.50;99.90;;;;;;4927863;29;20045;-79
2022/01/31 11:46:43;;;;;;;11.10;1.75;;;7.50;99.90;;;;;;4945994;29;20055;-79
2022/01/31 11:49:12;;;;;;;13.15;1.75;;;7.80;99.90;;;;;;4951188;29;20767;-79
2022/01/31 11:52:02;;;;;;;9.25;1.50;;;7.60;99.90;;;;;;4934483;29;20074;-84
2022/01/31 11:54:28;;;;;;;6.63;1.27;;;7.60;99.90;;;;;;4934263;29;20179;-79
2022/01/31 11:56:54;;;;;;;9.05;1.70;;;7.70;99.90;;;;;;4952257;29;20055;-80
2022/01/31 11:59:21;;;;;;;11.73;1.52;;;7.80;99.90;;;;;;4933322;29;20047;-78
2022/01/31 12:01:50;;;;;;;15.60;1.77;;;7.80;99.90;;;;;;4952190;29;20130;-84
2022/01/31 12:04:20;;;;;;;8.25;0.90;;;7.80;99.90;;;;;;4950290;29;20043;-83
2022/01/31 12:06:46;;;;;;;7.03;1.60;;;7.70;99.90;;;;;;4952145;29;20047;-84
2022/01/31 12:09:17;;;;;;;11.00;1.50;;;8.00;99.90;;;;;;4948945;29;20071;-81
2022/01/31 12:12:06;;;;;;;12.98;2.17;;;7.60;99.90;;;;;;4946555;29;20039;-80
2022/01/31 12:14:52;;;;;;;6.40;1.02;;;7.70;99.90;;;;;;4944843;29;20058;-76
2022/01/31 12:17:48;;;;;;;9.05;1.65;;;7.60;99.90;;;;;;4949279;29;20051;-77
2022/01/31 12:22:00;;;;;;;6.72;0.77;;;7.50;99.90;;;;;;4924854;29;20051;-77
2022/01/31 12:23:36;;;;;;;10.48;1.83;;;7.40;99.90;;;;;;4932076;29;20050;-75
2022/01/31 12:26:23;;;;;;;12.93;2.03;;;7.40;99.90;;;;;;4924403;29;20122;-75
2022/01/31 12:28:55;;;;;;;11.48;1.30;;;7.30;99.90;;;;;;4941077;29;20093;-76
2022/01/31 12:31:41;;;;;;;13.68;1.70;;;7.40;99.90;;;;;;4930618;29;20074;-81
2022/01/31 12:34:33;;;;;;;10.90;0.90;;;7.40;99.90;;;;;;4943859;29;20047;-77
2022/01/31 12:37:22;;;;;;;5.90;1.13;;;7.60;99.90;;;;;;4939152;29;20047;-77
2022/01/31 12:40:00;;;;;;;11.50;1.17;;;7.60;99.90;;;;;;4928493;29;20066;-81
2022/01/31 12:45:27;;;;;;;8.48;1.52;;;7.60;99.90;;;;;;4943583;29;20047;-79
2022/01/31 12:48:08;;;;;;;6.90;1.08;;;7.70;99.90;;;;;;4946141;29;20051;-80
2022/01/31 12:50:48;;;;;;;10.70;1.58;;;7.80;99.90;;;;;;4933747;29;20117;-82
2022/01/31 12:53:23;;;;;;;6.47;1.88;;;7.80;99.90;;;;;;4932277;29;20078;-80
2022/01/31 12:56:13;;;;;;;9.48;1.50;;;7.80;99.90;;;;;;4948395;29;20039;-82
2022/01/31 12:58:40;;;;;;;7.13;1.60;;;7.90;99.90;;;;;;4943001;29;20059;-78
2022/01/31 13:01:23;;;;;;;14.63;1.98;;;8.00;99.90;;;;;;4948961;29;20043;-81
2022/01/31 13:03:52;;;;;;;12.50;1.77;;;8.00;99.90;;;;;;4945378;29;20035;-81
2022/01/31 13:06:26;;;;;;;18.35;1.90;;;8.30;99.90;;;;;;4931702;29;20039;-82
2022/01/31 13:08:52;;;;;;;7.18;0.98;;;8.10;99.90;;;;;;4928746;29;20105;-80
2022/01/31 13:11:18;;;;;;;13.30;1.35;;;8.00;99.90;;;;;;4948363;29;20484;-83
2022/01/31 13:13:45;;;;;;;17.17;1.65;;;8.00;99.90;;;;;;4949329;29;20692;-83
2022/01/31 13:16:15;;;;;;;7.32;1.33;;;8.50;99.90;;;;;;4951968;29;20113;-81
2022/01/31 13:18:42;;;;;;;6.68;1.65;;;8.00;99.90;;;;;;4949916;29;20691;-86
2022/01/31 13:21:13;;;;;;;8.85;1.73;;;8.40;99.90;;;;;;4942736;29;20098;-83
2022/01/31 13:23:41;;;;;;;4.70;1.15;;;7.90;99.90;;;;;;4944746;29;20043;-83